Edmonton / Gartner Airport

CFQ7 · 艾伯塔, 加拿大

罗盘
风向 的 风向 的 风向 到 风向 310° Edmonton / Gartner Airport 9/27
风向 到 风: 4 kt, 阵阵 16 kt, 2 beaufort

4 kt

2 kt
改变
0 ft 6.000 12.000 18.000 24.000 30.000
Cloud Cloud
FEW 7.500
Cloud Cloud
FEW 25.000
METAR CYEG 132200Z 31004G16KT 280V360 20SM FEW075 FEW250 12/M06 A2983 RMK CU1CI1 CU TR SLP122 DENSITY ALT 2700FT

METAR Edmonton / Gartner Airport - CFQ7

Edmonton / Gartner Airport是,加拿大中的小机场。 该机场位于纬度53,28109和经度-113,45681。 该机场有一条跑道: 9/27. 该机场的伪ICAO代码为CFQ7。 机场在Edmonton FIR中。

该航空气象观测是针对Edmonton International Airport在2024年4月13日 16:00, 当地时间进行的。

机场观察

风向为310°,速度为4 kt。 已测得16 kt的阵风。 风向在280°和360°之间变化。

可见度为20 mi。

有几云在7.500 ft的高度 和 几云在25.000 ft的高度。 没有观察到天花板。

温度和风寒是12 °C。 露点为-6 °C,相对湿度为28%。 海平面上的气压为29,83 inHg (QNH)。

白天

今天,太阳从06:36升起,在20:31降落。 这适用于Edmonton / Gartner Airport,世界夏令时可能有所不同。 当地时间与世界标准时间之间的时差为-6 小时。 夏令时目前正在进行中。

公司介绍

我们没有关于这个机场的公司信息。

体会

到Vliegles.nl去找飞行课程,跳伞和其他飞行体验。 浏览页面,了解Edmonton / Gartner Airport附近所有可用的活动。 你也可以使用搜索功能来寻找你所在地附近的特定飞行课程、跳伞或其他飞行体验。

跑道

Id 标题 侧风 逆风 侧风 %
9/27 105°-285° 2-7 kt 4-15 kt 42 %

逆风成分最大的方向会被突出显示,并用于横风计算。 这并不一定意味着这个方向在使用。

乌云

7.500 ft FEW 几云
25.000 ft FEW 几云

温度 & 天气

温度 12 °C
露点 -6 °C
相对湿度 28%
Kp-index 0 (0-9)

评论

SLP122海平面压力为29,89 inHg (29,89 inHg)
CU1CI1 CU TR DENSITY ALT 2700FT

白天

日出
06:37
中午
13:34
日落
20:32 (4:17)

小工具

你想在你的网站上有一个关于Edmonton / Gartner Airport的当前航空天气(METAR)的小部件吗?

显示HTML代码
报告变更